Station info - map view · info · telemetry · weather · raw · status · beacons · messages · bulletins · browse · moving · my account
Callsign, ship name or locator: Clear       
It is possible to search using wildcards (*?) after a prefix. Example: OH*
APRS station OE5YDL-9 - show graphs
Map loading...
Mic-E message: En route
Location: 48°20.44' N 14°10.12' E - locator JN78CI01FS - show map - static map
5.7 miles Northwest bearing 317° from Leonding, Politischer Bezirk Linz Land, Upper Austria, Austria [?]
5.9 miles Northwest bearing 294° from Linz, Upper Austria, Austria
63.9 miles Northeast bearing 54° from Salzburg, Salzburg, Austria
Last position: 2018-10-04 12:56:06 EDT (13d 4h7m ago)
2018-10-04 18:56:06 CEST local time at Leonding, Austria [?]
Altitude: 883 ft
Course: 289°
Device: Yaesu: FTM-400DR (rig)
Last path: OE5YDL-9>TX2P44 via WIDE1-1,WIDE2-1,qAR,OE5WWO,T2CZECH (good)
Positions stored: 41049
Other SSIDs: OE5YDL-7
Stations near current position of OE5YDL-9 - show more
callsign distance last heard - EDT      callsign distance last heard - EDT
EW84230.7 miles 315°2018-10-16 06:01:19 DW52011.4 miles 350°2018-10-17 07:31:07
P0640758_2.9 miles 6°2018-09-24 09:26:08 P06407583.0 miles 2°2018-09-24 11:47:36
EUROSHIPPING ONE+SL3.5 miles 130°2018-10-15 04:45:40 BANDOLINO3.6 miles 129°2018-10-17 04:54:28
TATJANA3.6 miles 129°2018-10-16 18:56:02 CARL PRESSER3.6 miles 129°2018-10-03 11:19:13
NORMANDIE3.6 miles 129°2018-10-12 17:19:54 VERDI3.6 miles 129°2018-10-14 17:32:47
KIENSTOCK3.6 miles 129°2018-10-16 05:41:14 LILOFEE3.6 miles 128°2018-10-12 08:04:38
OE5VIP-103.7 miles 198°2018-10-17 16:47:43 DUNAV 74.0 miles 123°2018-10-17 07:04:04
VIKING EISTLA4.0 miles 123°2018-10-16 15:34:15 MIRELA4.1 miles 122°2018-10-07 07:03:39
OE5XLM-104.5 miles 130°2018-10-17 17:01:00 OE5XLM-154.5 miles 130°2018-10-17 16:53:44
ADL 5054.5 miles 130°2018-09-21 14:33:34 SVETI PAWEL4.7 miles 118°2018-09-29 02:16:01
Stations which heard OE5YDL-9 directly on radio –
callsign pkts first heard - EDT last heard longest (tx => rx) longest at - EDT
OE6XTR 4 2018-10-04 08:31:34 2018-10-04 09:49:17 JN76WG > JN77VN 89.7 miles 358° 2018-10-04 08:31:34
OE6XRR 9 2018-10-04 09:11:04 2018-10-04 10:18:00 JN76TQ > JN77QC 30.2 miles 336° 2018-10-04 09:11:04
OE5ERN-10 3 2018-10-04 12:26:15 2018-10-04 12:34:53 JN78DH > JN78DH 2.3 miles 19° 2018-10-04 12:26:15
OE6XLR-11 35 2018-10-04 07:56:10 2018-10-04 10:58:06 JN76XB > JN77OI 95.6 miles 339° 2018-10-04 07:56:10
OE5XIM-10 6 2018-10-04 11:47:30 2018-10-04 12:03:20 JN78AA > JN78DN 38.3 miles 14° 2018-10-04 11:47:30
OE5XGL-10 4 2018-10-04 11:52:15 2018-10-04 11:56:55 JN78BD > JN67VV 21.7 miles 221° 2018-10-04 11:56:55
9A1CIG-10 12 2018-10-01 04:46:17 2018-10-04 03:02:41 JN73XM > JN83HM 31.5 miles 91° 2018-10-02 05:30:05
OE5REO-10 22 2018-10-04 11:30:19 2018-10-04 12:08:04 JN78DF > JN77BV 23.8 miles 199° 2018-10-04 12:08:04
9A2CD-11 16 2018-10-04 07:20:50 2018-10-04 08:10:01 JN76XB > JN75XS 21.1 miles 170° 2018-10-04 08:10:01
OE5XBL-10 1 2018-10-04 11:40:10 2018-10-04 11:40:10 JN77BW > JN68PC 38.6 miles 289° 2018-10-04 11:40:10
9A7KXP-11 4 2018-10-04 06:19:11 2018-10-04 07:02:51 JN75SM > JN75MJ 29.5 miles 249° 2018-10-04 07:02:51
S55UJE-11 1 2018-10-04 09:48:13 2018-10-04 09:48:13 JN76RW > JN76BL 70.9 miles 243° 2018-10-04 09:48:13
9A7KXP-1 43 2018-10-04 06:14:33 2018-10-04 09:23:15 JN76ST > JN75XV 64.8 miles 164° 2018-10-04 09:23:15
9A7KXP-12 11 2018-10-04 05:25:15 2018-10-04 07:01:41 JN75SM > JN74PX 39.2 miles 202° 2018-10-04 07:01:41
IR6UCQ 10 2018-10-01 09:40:03 2018-10-04 02:58:27 JN83DV > JN63NE 166.6 miles 254° 2018-10-01 09:40:47
S59DGO-5 2 2018-10-04 08:38:50 2018-10-04 08:56:36 JN76TL > JN75FO 85.1 miles 224° 2018-10-04 08:56:36
OE5DRP 1 2018-10-04 10:52:52 2018-10-04 10:52:52 JN77GL > JN68XP 84.8 miles 340° 2018-10-04 10:52:52
OE5EEP-10 2 2018-10-04 11:52:50 2018-10-04 11:58:05 JN78BD > JN67TX 28.4 miles 243° 2018-10-04 11:58:05
IR6BJ 4 2018-10-03 04:52:08 2018-10-04 04:39:09 JN74TG > JN62UU 136.3 miles 225° 2018-10-04 04:39:09
OE3XLR 3 2018-10-04 11:59:50 2018-10-04 12:07:30 JN78CE > JN77TX 67.7 miles 101° 2018-10-04 11:59:50
S55YZA-11 2 2018-10-04 09:24:28 2018-10-04 09:49:20 JN76RW > JN76NE 55.5 miles 197° 2018-10-04 09:49:20
OE3MUC-15 1 2018-10-04 11:17:44 2018-10-04 11:17:44 JN77DQ > JN78SK 75.9 miles 49° 2018-10-04 11:17:44
OE6XBF-11 32 2018-10-04 08:25:36 2018-10-04 09:49:19 JN76WG > JN76XU 40.6 miles 5° 2018-10-04 08:26:38
OE5XHR-10 2 2018-10-04 11:34:48 2018-10-04 11:59:15 JN77BU > JN68XR 60.9 miles 350° 2018-10-04 11:34:48
OE6ASF 4 2018-10-04 11:02:27 2018-10-04 11:06:37 JN77DM > JN77CN 6.4 miles 295° 2018-10-04 11:02:27
9A1AYZ-10 3 2018-10-04 07:23:17 2018-10-04 07:31:16 JN75WR > JN85AU 10.9 miles 47° 2018-10-04 07:23:17
9A7KXP 11 2018-10-04 07:21:23 2018-10-04 08:55:13 JN76UL > JN85DT 53.5 miles 146° 2018-10-04 08:55:13
OE5WWO 56 2018-10-04 12:01:35 2018-10-04 12:56:06 JN78CE > JN78DH 9.1 miles 33° 2018-10-04 12:01:35
9A7KXP-13 4 2018-10-04 07:25:34 2018-10-04 07:46:03 JN75WX > JN85AS 16.4 miles 141° 2018-10-04 07:46:03
OE6XAR-1 1 2018-10-04 10:25:45 2018-10-04 10:25:45 JN77MH > JN77EG 32.9 miles 266° 2018-10-04 10:25:45
S59DTB-10 10 2018-10-04 07:36:22 2018-10-04 09:04:28 JN75VU > JN86AO 54.8 miles 11° 2018-10-04 07:36:22
OE6XG-1 25 2018-10-04 08:29:16 2018-10-04 10:09:35 JN76WG > JN77OD 67.5 miles 333° 2018-10-04 08:29:16
OE5XLM-10 2 2018-10-04 12:07:53 2018-10-04 12:48:58 JN78DE > JN78CH 6.6 miles 352° 2018-10-04 12:07:53
OE8LCK-10 2 2018-10-04 09:24:28 2018-10-04 09:49:19 JN76ST > JN76DQ 63.0 miles 261° 2018-10-04 09:24:28
9A5CAN-9 11 2018-10-04 07:24:25 2018-10-04 07:34:29 JN75WR > JN75WT 4.8 miles 357° 2018-10-04 07:25:31
IR6UDA-11 1 2018-10-04 04:37:53 2018-10-04 04:37:53 JN74TF > JN63EU 165.5 miles 261° 2018-10-04 04:37:53
9A7KXP-2 99 2018-10-01 04:35:35 2018-10-04 04:15:00 JN74RC > JN83BA 80.8 miles 156° 2018-10-04 04:15:00
9A1AYZ-11 41 2018-10-04 06:12:06 2018-10-04 09:49:19 JN76RW > JN75TR 84.3 miles 175° 2018-10-04 09:49:19
9A2B-10 4 2018-10-04 06:58:10 2018-10-04 07:02:51 JN75SM > JN75SL 3.3 miles 218° 2018-10-04 07:02:51
OE6XG-2 19 2018-10-04 09:11:35 2018-10-04 10:17:23 JN76TQ > JN77OF 42.3 miles 334° 2018-10-04 09:11:35
9A1AYZ-12 38 2018-10-01 04:58:19 2018-10-04 09:49:19 JN76RW > JN74LT 148.6 miles 189° 2018-10-04 09:49:19
9A4OS-12 12 2018-10-01 05:12:29 2018-10-04 04:39:10 JN83AN > JN74PC 49.8 miles 316° 2018-10-04 03:04:35
OE5XOL-10 3 2018-10-04 12:04:30 2018-10-04 12:09:49 JN78DE > JN78DJ 14.6 miles 2° 2018-10-04 12:04:30
9A3DZK-1 54 2018-10-03 04:40:16 2018-10-04 04:03:16 JN73TX > JN83GW 46.6 miles 94° 2018-10-04 04:03:16
IR6AC-10 15 2018-10-01 04:53:28 2018-10-04 03:13:52 JN83DV > JN72BE 162.7 miles 224° 2018-10-01 06:17:43
9A7KXP-3 5 2018-10-03 05:13:26 2018-10-03 11:29:12 JN73XQ > JN73WR 3.9 miles 348° 2018-10-03 11:29:12

Only position packets which were originated by the station are shown here. The range statistics show some extra long hops, because some digipeaters do not correctly add themselves to the digipeater path. Please check the raw packets.
About this site
This page shows real-time information collected from the Automatic Position Reporting System Internet network (APRS-IS). APRS is used by amateur (ham) radio operators to transmit real-time position information, weather data, telemetry and messages over the radio. A vehicle equipped with a GPS receiver, a VHF transmitter or HF transceiver and a small computer device called a tracker transmits it's location, speed and course in a small data packet, which is then received by a nearby iGate receiving site which forwards the packet on the Internet. Systems connected to the Internet can send information on the APRS-IS without a radio transmitter, or collect and display information transmitted anywhere in the world.
FAQ · Blog · Discussion group · Linking to aprs.fi · AIS sites · Service status · Database statistics · Advertising on aprs.fi · Technical details · API · Change log · Planned changes · Credits and thanks · Terms Of Service · iPhone/iPad APRS